PATA/TAL METAR and TAF weather

Enter ICAO airport designator
Station Type Date Time Source
PATA METAR 2022/11/30 17:52 UTC NOAA

PATA 301752Z 12005KT 10SM BKN075 OVC100 M21/M24 A3031 RMK AO2 SLP274 4/012 933016 T12111239 11211 21244 56039


Station Type Date Time Source
PATA Decoded METAR 2022/11/30 17:52 UTC NOAA

TANANA CALHOUN MEMORIAL AIRPORT , AK, United States (PATA) 65-10N 152-06W 67M
Nov 30, 2022 - 12:52 PM EST / 2022.11.30 1752 UTC
Wind: from the ESE (120 degrees) at 6 MPH (5 KT):0
Visibility: 10 mile(s):0
Sky conditions: overcast
Weather: 12 inches of snow on ground
Temperature: -6.0 F (-21.1 C)
Windchill: -18 F (-28 C):2
Dew Point: -11.0 F (-23.9 C)
Relative Humidity: 78%
Pressure (altimeter): 30.31 in. Hg (1026 hPa)
Pressure tendency: 0.12 inches (3.9 hPa) lower than three hours ago
ob: PATA 301752Z 12005KT 10SM BKN075 OVC100 M21/M24 A3031 RMK AO2 SLP274 4/012 933016 T12111239 11211 21244 56039
cycle: 18

Station Type Date Time Source
PATA TAF 2022/11/30 18:06 UTC NOAA

TAF PATA 301805Z 3018/0118 11005KT P6SM OVC060
FM302100 11010KT 3SM -SN OVC025
FM302300 VRB05KT 3/4SM -SN OVC015
FM011000 30010KT 3SM -SN OVC025

Example: see airport list